Terminal Aerodrome Forecast
Issued by NWS

Current Version | Previous Version | Graphics & Text | Print | Product List | Glossary On
Versions: 1 2 3 4 5 6 7 8 9 10 11 12 13 14 15 16 17 18 19 20
000
FTUS41 KPBZ 031720
TAFHLG
TAF
KHLG 031720Z 0318/0418 26006KT P6SM OVC016
     FM032000 25005KT P6SM OVC022
     FM040000 24004KT P6SM BKN035
     FM041500 11004KT P6SM BKN120=

USA.gov is the U.S. government's official web portal to all federal, state and local government web resources and services.